Terminal Aerodrome Forecast
Issued by NWS

Home | Current Version | Previous Version | Graphics & Text | Print | Product List | Glossary On
Versions: 1 2 3 4 5 6 7 8 9 10 11 12 13 14 15 16
761
FTUS43 KMPX 141712 AAA
TAFRNH
TAF AMD
KRNH 141712Z 1417/1512 18004KT P6SM OVC012
     FM142100 VRB03KT P6SM OVC022
     FM142300 33004KT P6SM BKN040
     FM150400 00000KT 3SM BR SKC
     FM150600 00000KT 1/4SM FG VV002=

USA.gov is the U.S. government's official web portal to all federal, state and local government web resources and services.